Terminal Aerodrome Forecast
Issued by NWS

Home | Current Version | Previous Version | Text Only | Print | Product List | Glossary On
Versions: 1 2 3 4 5 6 7 8 9 10 11 12 13 14 15
150
FTUS43 KMQT 240527
TAFIWD
TAF
KIWD 240527Z 2406/2506 20005KT P6SM -SHRA OVC060
     FM241000 22004KT P6SM -SHRA OVC035
     FM241200 26005KT P6SM VCSH BKN030
     FM241600 28005KT P6SM VCSH BKN020
     FM241800 35004KT P6SM SCT020
     FM250000 03005KT P6SM FEW020=

USA.gov is the U.S. government's official web portal to all federal, state and local government web resources and services.